createdAt,value
2019-05-11T00:00:57.129Z,47.52
2019-05-11T00:01:56.962Z,47.02
2019-05-11T00:02:56.947Z,47.12
2019-05-11T00:03:56.934Z,46.60
2019-05-11T00:04:56.927Z,45.70
2019-05-11T00:05:56.913Z,46.50
2019-05-11T00:06:56.955Z,46.30
2019-05-11T00:07:56.891Z,44.92
2019-05-11T00:08:56.882Z,45.59
2019-05-11T00:09:58.510Z,45.00
2019-05-11T00:10:56.857Z,46.02
2019-05-11T00:11:56.852Z,45.80
2019-05-11T00:12:56.887Z,46.00
2019-05-11T00:13:56.824Z,45.20
2019-05-11T00:14:56.815Z,45.50
2019-05-11T00:15:56.803Z,45.17
2019-05-11T00:16:56.791Z,45.15
2019-05-11T00:17:56.787Z,43.85
2019-05-11T00:18:56.923Z,44.23
2019-05-11T00:19:56.764Z,43.63
2019-05-11T00:20:56.763Z,43.41
2019-05-11T00:21:56.737Z,43.41
2019-05-11T00:22:56.732Z,42.49
2019-05-11T00:23:56.718Z,42.39
2019-05-11T00:24:56.758Z,42.09
2019-05-11T00:25:56.694Z,43.39
2019-05-11T00:26:56.683Z,42.49
2019-05-11T00:27:56.674Z,42.51
2019-05-11T00:28:56.662Z,41.91
2019-05-11T00:29:56.650Z,41.83
2019-05-11T00:30:56.691Z,41.93
2019-05-11T00:31:56.630Z,41.83
2019-05-11T00:32:56.622Z,42.75
2019-05-11T00:33:56.605Z,44.47
2019-05-11T00:34:56.599Z,47.28
2019-05-11T00:35:56.591Z,47.40
2019-05-11T00:36:56.727Z,46.50
2019-05-11T00:37:56.564Z,46.38
2019-05-11T00:38:56.553Z,46.40
2019-05-11T00:39:56.545Z,46.50
2019-05-11T00:40:56.536Z,46.70
2019-05-11T00:41:56.521Z,46.42
2019-05-11T00:42:56.559Z,47.52
2019-05-11T00:43:56.495Z,46.42
2019-05-11T00:44:56.492Z,47.43
2019-05-11T00:45:56.475Z,46.52
2019-05-11T00:46:56.463Z,46.02
2019-05-11T00:47:56.453Z,47.22
2019-05-11T00:48:56.493Z,47.32
2019-05-11T00:49:56.430Z,46.12
2019-05-11T00:50:56.421Z,44.70
2019-05-11T00:51:56.412Z,45.25
2019-05-11T00:52:56.398Z,44.05
2019-05-11T00:53:56.385Z,44.05
2019-05-11T00:54:56.780Z,46.05
2019-05-11T00:55:56.366Z,46.48
2019-05-11T00:56:56.359Z,46.78
2019-05-11T00:57:56.346Z,47.60
2019-05-11T00:58:56.333Z,47.30
2019-05-11T00:59:56.324Z,47.32
2019-05-11T01:00:56.363Z,48.52
2019-05-11T01:01:56.302Z,49.53
2019-05-11T01:02:56.291Z,48.95
2019-05-11T01:03:56.275Z,48.05
2019-05-11T01:04:56.277Z,48.85
2019-05-11T01:05:56.346Z,48.67
2019-05-11T01:06:56.309Z,48.57
2019-05-11T01:07:56.236Z,49.07
2019-05-11T01:08:56.226Z,47.97
2019-05-11T01:09:56.213Z,47.37
2019-05-11T01:10:56.205Z,46.67
2019-05-11T01:11:56.194Z,46.35
2019-05-11T01:12:56.331Z,45.77
2019-05-11T01:13:56.176Z,45.74
2019-05-11T01:14:56.157Z,46.85
2019-05-11T01:15:56.147Z,45.92
2019-05-11T01:16:56.136Z,45.80
2019-05-11T01:17:56.126Z,44.07
2019-05-11T01:18:56.214Z,44.47
2019-05-11T01:19:56.104Z,44.78
2019-05-11T01:20:56.095Z,44.90
2019-05-11T01:21:56.081Z,44.70
2019-05-11T01:22:56.070Z,42.69
2019-05-11T01:23:56.058Z,45.20
2019-05-11T01:24:56.102Z,46.30
2019-05-11T01:25:56.038Z,45.80
2019-05-11T01:26:56.029Z,44.59
2019-05-11T01:27:56.022Z,45.09
2019-05-11T01:28:56.005Z,45.59
2019-05-11T01:29:55.995Z,47.50
2019-05-11T01:30:56.135Z,49.91
2019-05-11T01:31:55.976Z,48.60
2019-05-11T01:32:55.962Z,47.22
2019-05-11T01:33:55.954Z,47.12
2019-05-11T01:34:55.941Z,47.52
2019-05-11T01:35:55.928Z,46.70
2019-05-11T01:36:55.968Z,47.20
2019-05-11T01:37:55.912Z,47.40
2019-05-11T01:38:55.896Z,47.20
2019-05-11T01:39:55.888Z,46.40
2019-05-11T01:40:58.591Z,46.40
2019-05-11T01:41:55.866Z,46.30
2019-05-11T01:42:55.901Z,47.43
2019-05-11T01:43:55.839Z,46.20
2019-05-11T01:44:55.835Z,44.55
2019-05-11T01:45:55.820Z,44.63
2019-05-11T01:46:55.811Z,44.93
2019-05-11T01:47:55.822Z,45.25
2019-05-11T01:48:55.938Z,45.75
2019-05-11T01:49:55.778Z,45.75
2019-05-11T01:50:55.772Z,45.75
2019-05-11T01:51:55.758Z,47.38
2019-05-11T01:52:55.744Z,46.08
2019-05-11T01:53:55.739Z,45.78
2019-05-11T01:54:55.821Z,46.58
2019-05-11T01:55:55.711Z,45.88
2019-05-11T01:56:55.703Z,44.86
2019-05-11T01:57:55.690Z,47.24
2019-05-11T01:58:55.681Z,47.03
2019-05-11T01:59:55.667Z,46.43
2019-05-11T02:00:55.708Z,46.16
2019-05-11T02:01:55.646Z,46.16
2019-05-11T02:02:55.639Z,47.16
2019-05-11T02:03:55.639Z,47.16
2019-05-11T02:04:55.616Z,47.68
2019-05-11T02:05:55.604Z,47.48
2019-05-11T02:06:55.745Z,47.08
2019-05-11T02:07:55.592Z,46.48
2019-05-11T02:08:55.573Z,47.18
2019-05-11T02:09:55.562Z,47.68
2019-05-11T02:10:55.550Z,47.38
2019-05-11T02:11:55.539Z,47.78
2019-05-11T02:12:55.581Z,47.46
2019-05-11T02:13:55.520Z,47.54
2019-05-11T02:14:55.512Z,46.71
2019-05-11T02:15:55.499Z,47.01
2019-05-11T02:16:55.487Z,46.81
2019-05-11T02:17:55.478Z,46.81
2019-05-11T02:18:55.514Z,46.91
2019-05-11T02:19:55.457Z,46.71
2019-05-11T02:20:55.447Z,46.41
2019-05-11T02:21:55.430Z,44.51
2019-05-11T02:22:55.423Z,45.71
2019-05-11T02:23:55.415Z,44.81
2019-05-11T02:24:55.554Z,45.89
2019-05-11T02:25:55.390Z,46.39
2019-05-11T02:26:55.378Z,44.79
2019-05-11T02:27:55.370Z,46.19
2019-05-11T02:28:55.364Z,45.99
2019-05-11T02:29:55.351Z,45.47
2019-05-11T02:30:55.400Z,45.37
2019-05-11T02:31:55.333Z,44.57
2019-05-11T02:32:55.330Z,45.26
2019-05-11T02:33:55.315Z,45.47
2019-05-11T02:34:55.296Z,44.47
2019-05-11T02:35:55.287Z,45.17
2019-05-11T02:36:55.327Z,44.77
2019-05-11T02:37:55.379Z,44.89
2019-05-11T02:38:55.256Z,45.49
2019-05-11T02:39:55.246Z,44.59
2019-05-11T02:40:55.247Z,45.26
2019-05-11T02:41:55.229Z,45.07
2019-05-11T02:42:55.364Z,44.99
2019-05-11T02:43:55.204Z,44.07
2019-05-11T02:44:55.196Z,44.07
2019-05-11T02:45:55.185Z,44.04
2019-05-11T02:46:55.175Z,44.12
2019-05-11T02:47:55.170Z,44.01
2019-05-11T02:48:55.201Z,42.66
2019-05-11T02:49:55.143Z,42.73
2019-05-11T02:50:55.142Z,41.89
2019-05-11T02:51:55.121Z,40.83
2019-05-11T02:52:55.109Z,40.60
2019-05-11T02:53:55.103Z,38.75
2019-05-11T02:54:55.136Z,37.92
2019-05-11T02:55:55.075Z,36.21
2019-05-11T02:56:55.063Z,35.38
2019-05-11T02:57:55.055Z,34.59
2019-05-11T02:58:55.044Z,34.79
2019-05-11T02:59:55.033Z,34.47
2019-05-11T03:00:55.273Z,34.95
2019-05-11T03:01:55.013Z,34.75
2019-05-11T03:02:55.005Z,34.47
2019-05-11T03:03:54.995Z,34.46
2019-05-11T03:04:54.986Z,34.71
2019-05-11T03:05:55.025Z,33.80
2019-05-11T03:06:54.964Z,33.17
2019-05-11T03:07:54.957Z,32.95
2019-05-11T03:08:54.940Z,31.26
2019-05-11T03:09:54.931Z,31.54
2019-05-11T03:10:54.915Z,31.43
2019-05-11T03:11:56.454Z,30.92
2019-05-11T03:12:54.904Z,31.02
2019-05-11T03:13:54.884Z,31.29
2019-05-11T03:14:54.880Z,30.78
2019-05-11T03:15:54.866Z,30.76
2019-05-11T03:16:54.856Z,30.63
2019-05-11T03:17:54.999Z,29.74
2019-05-11T03:18:54.842Z,28.83
2019-05-11T03:19:54.823Z,28.62
2019-05-11T03:20:54.816Z,27.83
2019-05-11T03:21:54.804Z,27.50
2019-05-11T03:22:54.848Z,27.89
2019-05-11T03:23:54.838Z,28.91
2019-05-11T03:24:54.779Z,27.96
2019-05-11T03:25:54.779Z,28.48
2019-05-11T03:26:54.756Z,28.54
2019-05-11T03:27:54.745Z,29.54
2019-05-11T03:28:54.734Z,30.16
2019-05-11T03:29:54.770Z,30.57
2019-05-11T03:30:54.730Z,31.16
2019-05-11T03:31:54.802Z,30.46
2019-05-11T03:32:54.714Z,30.85
2019-05-11T03:33:54.682Z,30.62
2019-05-11T03:34:54.682Z,29.62
2019-05-11T03:35:54.821Z,28.59
2019-05-11T03:36:54.654Z,28.66
2019-05-11T03:37:54.747Z,27.85
2019-05-11T03:38:54.631Z,26.57
2019-05-11T03:39:54.622Z,27.16
2019-05-11T03:40:54.612Z,27.27
2019-05-11T03:42:12.885Z,27.75
2019-05-11T03:42:55.694Z,27.96
2019-05-11T03:43:54.579Z,28.68
2019-05-11T03:44:54.576Z,28.69
2019-05-11T03:45:54.572Z,28.98
2019-05-11T03:46:54.551Z,29.30
2019-05-11T03:47:54.594Z,30.59
2019-05-11T03:48:54.542Z,30.52
2019-05-11T03:49:54.529Z,31.64
2019-05-11T03:50:54.513Z,31.97
2019-05-11T03:51:54.511Z,33.38
2019-05-11T03:52:54.490Z,33.39
2019-05-11T03:53:54.635Z,33.60
2019-05-11T03:54:54.473Z,34.50
2019-05-11T03:55:54.466Z,35.31
2019-05-11T03:56:54.452Z,34.95
2019-05-11T03:57:54.442Z,35.46
2019-05-11T03:58:54.435Z,34.99
2019-05-11T03:59:54.520Z,36.38
2019-05-11T04:00:54.411Z,37.20
2019-05-11T04:01:54.397Z,38.32
2019-05-11T04:02:54.391Z,38.85
2019-05-11T04:03:54.379Z,39.96
2019-05-11T04:04:54.417Z,40.28
2019-05-11T04:05:54.361Z,41.09
2019-05-11T04:06:54.348Z,41.99
2019-05-11T04:07:54.336Z,42.02
2019-05-11T04:08:54.435Z,43.54
2019-05-11T04:09:54.570Z,45.09
2019-05-11T04:10:54.308Z,45.49
2019-05-11T04:11:54.294Z,47.11
2019-05-11T04:12:54.305Z,46.83
2019-05-11T04:13:54.272Z,47.45
2019-05-11T04:14:54.266Z,48.27
2019-05-11T04:15:54.302Z,48.90
2019-05-11T04:16:54.241Z,48.99
2019-05-11T04:17:54.237Z,47.60
2019-05-11T04:18:54.222Z,47.39
2019-05-11T04:19:54.209Z,47.52
2019-05-11T04:20:54.203Z,47.90
2019-05-11T04:21:54.239Z,47.30
2019-05-11T04:22:54.179Z,45.58
2019-05-11T04:23:54.171Z,43.45
2019-05-11T04:24:54.162Z,44.14
2019-05-11T04:25:54.149Z,42.15
2019-05-11T04:26:54.142Z,42.21
2019-05-11T04:27:54.278Z,42.90
2019-05-11T04:28:54.124Z,42.81
2019-05-11T04:29:54.110Z,43.40
2019-05-11T04:30:54.096Z,42.63
2019-05-11T04:31:54.083Z,41.63
2019-05-11T04:32:54.079Z,42.23
2019-05-11T04:33:54.114Z,43.38
2019-05-11T04:34:54.059Z,45.64
2019-05-11T04:35:54.040Z,47.27
2019-05-11T04:36:54.031Z,46.19
2019-05-11T04:37:54.021Z,47.21
2019-05-11T04:38:54.010Z,48.04
2019-05-11T04:39:54.073Z,48.36
2019-05-11T04:40:53.993Z,47.88
2019-05-11T04:41:53.978Z,48.98
2019-05-11T04:42:56.066Z,49.81
2019-05-11T04:43:53.954Z,49.71
2019-05-11T04:44:53.949Z,48.51
2019-05-11T04:45:54.183Z,49.18
2019-05-11T04:46:53.925Z,47.90
2019-05-11T04:47:53.916Z,49.40
2019-05-11T04:48:53.905Z,49.93
2019-05-11T04:49:53.909Z,50.13
2019-05-11T04:50:53.883Z,48.22
2019-05-11T04:51:53.920Z,49.40
2019-05-11T04:52:53.859Z,49.73
2019-05-11T04:53:53.850Z,49.33
2019-05-11T04:54:53.846Z,50.93
2019-05-11T04:55:53.834Z,53.07
2019-05-11T04:56:53.816Z,51.66
2019-05-11T04:57:53.865Z,52.97
2019-05-11T04:58:53.796Z,52.26
2019-05-11T04:59:53.787Z,52.26
2019-05-11T05:00:53.773Z,52.16
2019-05-11T05:01:53.767Z,54.90
2019-05-11T05:02:53.752Z,54.62
2019-05-11T05:03:57.747Z,54.92
2019-05-11T05:05:18.544Z,55.55
2019-05-11T05:06:24.024Z,54.62
2019-05-11T05:07:19.622Z,55.32
2019-05-11T05:08:21.226Z,56.83
2019-05-11T05:09:44.753Z,55.12
2019-05-11T05:10:43.350Z,56.33
2019-05-11T05:11:43.340Z,56.33
2019-05-11T05:12:50.756Z,57.36
2019-05-11T05:14:10.182Z,57.36
2019-05-11T05:15:08.221Z,60.00
2019-05-11T05:16:08.109Z,61.57
2019-05-11T05:17:08.096Z,60.56
2019-05-11T05:18:08.089Z,48.32
2019-05-11T05:19:08.077Z,48.65
2019-05-11T05:20:08.072Z,55.43
2019-05-11T05:21:08.207Z,54.24
2019-05-11T05:22:08.053Z,55.78
2019-05-11T05:23:08.034Z,52.71
2019-05-11T05:24:08.022Z,51.48
2019-05-11T05:25:08.011Z,53.09
2019-05-11T05:26:08.003Z,51.48
2019-05-11T05:27:08.082Z,52.79
2019-05-11T05:28:07.982Z,53.90
2019-05-11T05:29:07.973Z,52.06
2019-05-11T05:30:08.289Z,51.51
2019-05-11T05:31:07.949Z,50.78
2019-05-11T05:32:07.938Z,49.04
2019-05-11T05:33:07.978Z,47.21
2019-05-11T05:34:07.920Z,46.97
2019-05-11T05:35:07.905Z,45.64
2019-05-11T05:36:07.898Z,45.42
2019-05-11T05:37:07.897Z,45.55
2019-05-11T05:38:07.876Z,45.64
2019-05-11T05:39:09.271Z,45.84
2019-05-11T05:40:07.852Z,45.94
2019-05-11T05:41:07.843Z,45.55
2019-05-11T05:42:07.831Z,45.75
2019-05-11T05:43:07.820Z,45.34
2019-05-11T05:44:07.808Z,44.54
2019-05-11T05:45:07.856Z,44.03
2019-05-11T05:46:07.792Z,45.52
2019-05-11T05:47:07.784Z,43.51
2019-05-11T05:48:07.776Z,42.29
2019-05-11T05:49:07.760Z,39.67
2019-05-11T05:50:07.754Z,38.88
2019-05-11T05:51:07.789Z,41.77
2019-05-11T05:52:07.795Z,41.47
2019-05-11T05:53:07.715Z,41.77
2019-05-11T05:54:07.704Z,41.87
2019-05-11T05:55:07.699Z,41.85
2019-05-11T05:56:07.682Z,41.65
2019-05-11T05:57:07.822Z,41.53
2019-05-11T05:58:07.663Z,43.90
2019-05-11T05:59:07.655Z,43.60
2019-05-11T06:00:07.643Z,44.30
2019-05-11T06:01:10.070Z,43.48
2019-05-11T06:02:07.623Z,41.79
2019-05-11T06:03:07.661Z,40.47
2019-05-11T06:04:07.600Z,39.96
2019-05-11T06:05:07.593Z,43.84
2019-05-11T06:06:07.580Z,43.12
2019-05-11T06:07:07.571Z,43.32
2019-05-11T06:08:07.565Z,43.82
2019-05-11T06:09:07.601Z,43.89
2019-05-11T06:10:07.542Z,42.40
2019-05-11T06:11:07.526Z,41.51
2019-05-11T06:12:07.518Z,42.21
2019-05-11T06:13:07.507Z,40.50
2019-05-11T06:14:07.500Z,42.16
2019-05-11T06:15:07.639Z,38.59
2019-05-11T06:16:07.474Z,40.38
2019-05-11T06:17:07.470Z,41.57
2019-05-11T06:18:07.454Z,42.24
2019-05-11T06:19:07.449Z,41.35
2019-05-11T06:20:08.130Z,41.85
2019-05-11T06:21:07.478Z,41.25
2019-05-11T06:22:07.413Z,38.28
2019-05-11T06:23:07.405Z,42.91
2019-05-11T06:24:08.474Z,42.12
2019-05-11T06:25:07.389Z,42.02
2019-05-11T06:26:07.395Z,40.34
2019-05-11T06:27:07.410Z,38.85
2019-05-11T06:28:07.347Z,37.39
2019-05-11T06:29:07.343Z,37.60
2019-05-11T06:30:07.335Z,38.79
2019-05-11T06:31:07.316Z,38.69
2019-05-11T06:32:07.309Z,39.09
2019-05-11T06:33:07.699Z,39.29
2019-05-11T06:34:07.288Z,38.31
2019-05-11T06:35:07.273Z,36.82
2019-05-11T06:36:07.263Z,40.12
2019-05-11T06:37:07.250Z,36.36
2019-05-11T06:38:07.241Z,38.05
2019-05-11T06:39:07.330Z,38.53
2019-05-11T06:40:07.231Z,38.23
2019-05-11T06:41:07.207Z,37.42
2019-05-11T06:42:07.196Z,37.71
2019-05-11T06:43:07.185Z,36.54
2019-05-11T06:44:07.178Z,36.84
2019-05-11T06:45:07.216Z,38.43
2019-05-11T06:46:07.153Z,36.84
2019-05-11T06:47:07.146Z,37.22
2019-05-11T06:48:07.132Z,38.31
2019-05-11T06:49:07.127Z,39.39
2019-05-11T06:50:07.115Z,38.99
2019-05-11T06:51:07.253Z,40.36
2019-05-11T06:52:07.104Z,39.86
2019-05-11T06:53:07.090Z,38.95
2019-05-11T06:54:07.075Z,38.56
2019-05-11T06:55:07.062Z,36.75
2019-05-11T06:56:07.049Z,38.52
2019-05-11T06:57:07.146Z,37.65
2019-05-11T06:58:07.032Z,38.04
2019-05-11T06:59:07.020Z,38.83
2019-05-11T07:00:07.015Z,38.52
2019-05-11T07:01:06.999Z,38.81
2019-05-11T07:02:06.995Z,38.81
2019-05-11T07:03:07.038Z,38.81
2019-05-11T07:04:06.969Z,39.03
2019-05-11T07:05:06.957Z,39.33
2019-05-11T07:06:06.947Z,38.64
2019-05-11T07:07:06.943Z,38.64
2019-05-11T07:08:06.975Z,38.43
2019-05-11T07:09:06.922Z,40.22
2019-05-11T07:10:06.982Z,38.75
2019-05-11T07:11:06.896Z,38.06
2019-05-11T07:12:06.952Z,37.30
2019-05-11T07:13:06.877Z,36.61
2019-05-11T07:14:20.121Z,37.40
2019-05-11T07:15:07.951Z,37.03
2019-05-11T07:16:06.847Z,36.21
2019-05-11T07:17:06.838Z,37.60
2019-05-11T07:18:06.827Z,36.31
2019-05-11T07:19:06.963Z,36.71
2019-05-11T07:20:06.807Z,37.60
2019-05-11T07:21:06.796Z,36.41
2019-05-11T07:22:06.784Z,35.83
2019-05-11T07:23:06.775Z,36.13
2019-05-11T07:24:06.766Z,38.12
2019-05-11T07:25:06.809Z,36.23
2019-05-11T07:26:06.799Z,37.42
2019-05-11T07:27:06.733Z,36.31
2019-05-11T07:28:06.724Z,37.20
2019-05-11T07:29:06.713Z,38.29
2019-05-11T07:30:06.702Z,37.82
2019-05-11T07:31:06.742Z,36.21
2019-05-11T07:32:20.013Z,37.60
2019-05-11T07:33:31.483Z,37.70
2019-05-11T07:34:31.478Z,35.71
2019-05-11T07:35:31.462Z,35.10
2019-05-11T07:36:31.701Z,34.80
2019-05-11T07:37:31.446Z,35.52
2019-05-11T07:38:31.434Z,34.71
2019-05-11T07:39:31.429Z,35.30
2019-05-11T07:40:31.409Z,35.50
2019-05-11T07:41:31.400Z,34.69
2019-05-11T07:42:31.441Z,34.29
2019-05-11T07:43:31.387Z,35.08
2019-05-11T07:44:37.904Z,33.81
2019-05-11T07:45:58.277Z,32.42
2019-05-11T07:46:58.535Z,32.03
2019-05-11T07:47:58.769Z,33.93
2019-05-11T07:48:58.364Z,33.83
2019-05-11T07:49:57.935Z,33.23
2019-05-11T07:50:58.287Z,34.13
2019-05-11T07:51:58.568Z,33.93
2019-05-11T07:52:56.100Z,32.04
2019-05-11T07:53:57.794Z,31.95
2019-05-11T07:54:58.011Z,34.01
2019-05-11T07:55:57.764Z,32.74
2019-05-11T07:56:58.220Z,33.43
2019-05-11T07:57:58.411Z,32.04
2019-05-11T07:58:58.124Z,33.53
2019-05-11T07:59:57.878Z,32.84
2019-05-11T08:00:58.119Z,33.63
2019-05-11T08:01:58.141Z,34.03
2019-05-11T08:02:58.312Z,34.13
2019-05-11T08:03:58.402Z,35.02
2019-05-11T08:04:55.969Z,34.22
2019-05-11T08:05:58.084Z,34.22
2019-05-11T08:06:58.275Z,33.73
2019-05-11T08:07:55.940Z,32.44
2019-05-11T08:08:55.928Z,32.33
2019-05-11T08:09:55.926Z,33.52
2019-05-11T08:10:55.911Z,33.89
2019-05-11T08:11:58.249Z,31.91
2019-05-11T08:12:58.554Z,31.22
2019-05-11T08:13:58.248Z,31.22
2019-05-11T08:15:04.915Z,29.73
2019-05-11T08:16:20.665Z,30.82
2019-05-11T08:17:20.736Z,30.61
2019-05-11T08:18:20.643Z,31.70
2019-05-11T08:19:20.634Z,31.39
2019-05-11T08:20:20.623Z,31.59
2019-05-11T08:21:20.614Z,31.49
2019-05-11T08:22:23.022Z,30.70
2019-05-11T08:23:20.643Z,31.37
2019-05-11T08:24:20.581Z,29.79
2019-05-11T08:25:20.570Z,31.07
2019-05-11T08:26:20.572Z,30.46
2019-05-11T08:27:20.556Z,30.37
2019-05-11T08:28:20.538Z,29.77
2019-05-11T08:29:20.678Z,30.76
2019-05-11T08:30:20.521Z,30.96
2019-05-11T08:31:20.508Z,31.77
2019-05-11T08:32:20.499Z,30.88
2019-05-11T08:33:20.486Z,29.97
2019-05-11T08:34:20.478Z,30.76
2019-05-11T08:35:20.516Z,31.04
2019-05-11T08:36:20.452Z,31.14
2019-05-11T08:37:20.446Z,30.83
2019-05-11T08:38:20.433Z,30.93
2019-05-11T08:39:20.426Z,30.04
2019-05-11T08:40:20.415Z,31.01
2019-05-11T08:41:20.455Z,29.94
2019-05-11T08:42:20.391Z,30.83
2019-05-11T08:43:20.385Z,30.75
2019-05-11T08:44:20.373Z,30.75
2019-05-11T08:45:24.483Z,31.74
2019-05-11T08:46:20.354Z,30.85
2019-05-11T08:47:20.491Z,31.93
2019-05-11T08:48:20.329Z,31.04
2019-05-11T08:49:20.321Z,30.63
2019-05-11T08:50:20.312Z,31.13
2019-05-11T08:51:20.298Z,31.03
2019-05-11T08:52:20.288Z,31.62
2019-05-11T08:53:20.332Z,30.93
2019-05-11T08:54:20.267Z,31.72
2019-05-11T08:55:20.261Z,31.31
2019-05-11T08:56:20.248Z,31.01
2019-05-11T08:57:20.240Z,30.72
2019-05-11T08:58:20.226Z,30.82
2019-05-11T08:59:20.266Z,30.92
2019-05-11T09:00:20.202Z,31.01
2019-05-11T09:01:20.199Z,30.72
2019-05-11T09:02:20.186Z,30.81
2019-05-11T09:03:20.175Z,30.70
2019-05-11T09:04:20.214Z,29.72
2019-05-11T09:05:20.154Z,31.00
2019-05-11T09:06:20.142Z,30.79
2019-05-11T09:07:20.134Z,31.89
2019-05-11T09:08:20.120Z,30.72
2019-05-11T09:09:20.111Z,30.62
2019-05-11T09:10:20.205Z,30.92
2019-05-11T09:11:20.095Z,31.21
2019-05-11T09:12:20.080Z,31.41
2019-05-11T09:13:20.071Z,30.92
2019-05-11T09:14:20.063Z,30.72
2019-05-11T09:15:32.342Z,31.01
2019-05-11T09:16:44.898Z,31.61
2019-05-11T09:17:44.892Z,31.12
2019-05-11T09:18:44.878Z,31.12
2019-05-11T09:19:44.867Z,30.83
2019-05-11T09:20:44.858Z,31.01
2019-05-11T09:21:45.095Z,31.31
2019-05-11T09:22:44.835Z,31.41
2019-05-11T09:23:44.826Z,31.90
2019-05-11T09:24:44.816Z,32.02
2019-05-11T09:25:44.803Z,33.80
2019-05-11T09:26:44.793Z,32.51
2019-05-11T09:27:44.832Z,34.00
2019-05-11T09:28:44.774Z,34.67
2019-05-11T09:29:44.764Z,34.87
2019-05-11T09:30:44.750Z,32.80
2019-05-11T09:31:44.741Z,33.70
2019-05-11T09:32:44.733Z,34.00
2019-05-11T09:33:44.768Z,34.17
2019-05-11T09:34:44.709Z,33.48
2019-05-11T09:35:50.040Z,32.99
2019-05-11T09:37:09.500Z,33.19
2019-05-11T09:38:09.489Z,34.38
2019-05-11T09:39:09.627Z,33.78
2019-05-11T09:40:09.466Z,32.89
2019-05-11T09:41:12.036Z,33.89
2019-05-11T09:42:09.449Z,33.80
2019-05-11T09:43:09.439Z,33.70
2019-05-11T09:44:09.427Z,34.87
2019-05-11T09:45:09.470Z,33.68
2019-05-11T09:46:09.406Z,33.98
2019-05-11T09:47:09.403Z,32.80
2019-05-11T09:48:09.384Z,33.58
2019-05-11T09:49:09.375Z,32.91
2019-05-11T09:50:09.417Z,33.20
2019-05-11T09:51:09.357Z,33.80
2019-05-11T09:52:09.346Z,33.30
2019-05-11T09:53:09.334Z,34.69
2019-05-11T09:54:09.322Z,34.10
2019-05-11T09:55:09.313Z,33.80
2019-05-11T09:56:09.351Z,34.29
2019-05-11T09:57:09.291Z,33.41
2019-05-11T09:58:09.282Z,33.80
2019-05-11T09:59:09.270Z,34.17
2019-05-11T10:00:09.263Z,33.88
2019-05-11T10:01:09.248Z,33.39
2019-05-11T10:02:09.388Z,33.29
2019-05-11T10:03:09.231Z,33.39
2019-05-11T10:04:09.232Z,33.41
2019-05-11T10:05:09.211Z,34.19
2019-05-11T10:06:09.196Z,33.80
2019-05-11T10:07:09.187Z,33.60
2019-05-11T10:08:09.289Z,33.81
2019-05-11T10:09:09.167Z,34.71
2019-05-11T10:10:09.492Z,33.62
2019-05-11T10:11:09.149Z,34.10
2019-05-11T10:12:09.133Z,33.88
2019-05-11T10:13:09.124Z,33.48
2019-05-11T10:14:09.164Z,33.88
2019-05-11T10:15:09.104Z,33.39
2019-05-11T10:16:10.607Z,33.29
2019-05-11T10:17:09.082Z,33.48
2019-05-11T10:18:09.070Z,33.88
2019-05-11T10:19:09.063Z,34.67
2019-05-11T10:20:09.569Z,34.77
2019-05-11T10:21:09.041Z,34.55
2019-05-11T10:22:09.036Z,34.66
2019-05-11T10:23:09.026Z,34.46
2019-05-11T10:24:09.009Z,34.05
2019-05-11T10:25:09.308Z,33.06
2019-05-11T10:26:09.038Z,33.36
2019-05-11T10:27:08.981Z,33.95
2019-05-11T10:28:08.971Z,32.86
2019-05-11T10:29:08.961Z,34.14
2019-05-11T10:30:08.953Z,32.76
2019-05-11T10:31:08.939Z,31.66
2019-05-11T10:32:08.974Z,31.86
2019-05-11T10:33:08.918Z,32.66
2019-05-11T10:34:08.909Z,32.17
2019-05-11T10:35:08.897Z,30.98
2019-05-11T10:36:08.883Z,31.09
2019-05-11T10:37:08.874Z,31.59
2019-05-11T10:38:09.241Z,31.89
2019-05-11T10:39:08.858Z,31.99
2019-05-11T10:40:09.641Z,32.20
2019-05-11T10:41:08.920Z,32.80
2019-05-11T10:42:08.823Z,33.88
2019-05-11T10:43:08.814Z,32.10
2019-05-11T10:44:08.860Z,32.00
2019-05-11T10:45:09.274Z,31.90
2019-05-11T10:46:16.986Z,33.58
2019-05-11T10:47:09.877Z,32.89
2019-05-11T10:48:08.990Z,33.09
2019-05-11T10:49:08.801Z,31.21
2019-05-11T10:50:08.880Z,31.71
2019-05-11T10:51:08.730Z,31.90
2019-05-11T10:52:09.797Z,32.02
2019-05-11T10:53:08.711Z,32.10
2019-05-11T10:54:08.955Z,32.30
2019-05-11T10:55:09.006Z,31.53
2019-05-11T10:56:08.908Z,31.92
2019-05-11T10:57:08.670Z,31.90
2019-05-11T10:58:08.799Z,32.59
2019-05-11T10:59:08.651Z,31.72
2019-05-11T11:00:08.638Z,31.82
2019-05-11T11:01:08.958Z,33.41
2019-05-11T11:02:08.615Z,32.81
2019-05-11T11:03:08.655Z,32.22
2019-05-11T11:04:08.596Z,31.92
2019-05-11T11:05:08.586Z,32.02
2019-05-11T11:06:08.726Z,32.02
2019-05-11T11:07:08.561Z,34.19
2019-05-11T11:08:08.554Z,33.11
2019-05-11T11:09:08.546Z,32.71
2019-05-11T11:10:09.084Z,33.41
2019-05-11T11:11:08.526Z,32.51
2019-05-11T11:12:08.626Z,31.43
2019-05-11T11:13:08.503Z,32.22
2019-05-11T11:14:08.831Z,32.71
2019-05-11T11:15:08.481Z,33.50
2019-05-11T11:16:08.591Z,32.42
2019-05-11T11:17:08.881Z,32.22
2019-05-11T11:18:08.762Z,32.42
2019-05-11T11:19:08.441Z,33.50
2019-05-11T11:20:08.812Z,32.71
2019-05-11T11:21:08.816Z,33.50
2019-05-11T11:22:35.363Z,31.92
2019-05-11T11:23:33.262Z,30.83
2019-05-11T11:24:33.259Z,32.91
2019-05-11T11:25:33.240Z,32.61
2019-05-11T11:26:33.233Z,31.92
2019-05-11T11:27:33.220Z,30.83
2019-05-11T11:28:33.259Z,29.83
2019-05-11T11:29:33.200Z,30.03
2019-05-11T11:30:33.192Z,29.83
2019-05-11T11:31:33.180Z,30.03
2019-05-11T11:32:33.172Z,29.33
2019-05-11T11:33:33.308Z,29.02
2019-05-11T11:34:33.148Z,29.22
2019-05-11T11:35:33.133Z,30.11
2019-05-11T11:36:33.131Z,31.89
2019-05-11T11:37:33.120Z,32.30
2019-05-11T11:38:33.109Z,33.09
2019-05-11T11:39:33.146Z,32.71
2019-05-11T11:40:33.083Z,33.41
2019-05-11T11:41:33.115Z,29.74
2019-05-11T11:42:33.109Z,30.83
2019-05-11T11:43:33.101Z,29.65
2019-05-11T11:44:33.042Z,31.13
2019-05-11T11:45:33.084Z,31.92
2019-05-11T11:46:46.697Z,31.81
2019-05-11T11:47:58.136Z,31.61
2019-05-11T11:48:58.177Z,30.92
2019-05-11T11:49:58.353Z,31.71
2019-05-11T11:50:58.568Z,29.73
2019-05-11T11:51:58.090Z,29.63
2019-05-11T11:52:57.994Z,29.82
2019-05-11T11:53:58.408Z,29.02
2019-05-11T11:54:58.715Z,28.93
2019-05-11T11:55:58.765Z,31.20
2019-05-11T11:56:59.012Z,31.79
2019-05-11T11:57:58.915Z,29.13
2019-05-11T11:58:58.040Z,29.82
2019-05-11T11:59:58.728Z,29.13
2019-05-11T12:00:58.663Z,28.43
2019-05-11T12:01:58.234Z,29.02
2019-05-11T12:02:58.128Z,28.83
2019-05-11T12:03:58.164Z,29.01
2019-05-11T12:04:58.266Z,28.42
2019-05-11T12:05:58.168Z,28.82
2019-05-11T12:06:58.152Z,29.31
2019-05-11T12:07:58.112Z,28.91
2019-05-11T12:08:58.502Z,28.91
2019-05-11T12:09:58.768Z,28.91
2019-05-11T12:10:58.865Z,28.82
2019-05-11T12:11:58.292Z,29.11
2019-05-11T12:12:58.231Z,31.18
2019-05-11T12:13:58.028Z,29.60
2019-05-11T12:14:58.488Z,30.98
2019-05-11T12:15:58.515Z,29.70
2019-05-11T12:17:07.538Z,29.80
2019-05-11T12:18:22.325Z,29.70
2019-05-11T12:19:22.314Z,29.70
2019-05-11T12:20:22.404Z,30.59
2019-05-11T12:21:22.295Z,31.78
2019-05-11T12:22:22.285Z,31.87
2019-05-11T12:23:22.274Z,32.86
2019-05-11T12:24:22.264Z,33.25
2019-05-11T12:25:22.253Z,33.25
2019-05-11T12:26:22.393Z,33.06
2019-05-11T12:27:22.232Z,33.25
2019-05-11T12:28:22.220Z,33.25
2019-05-11T12:29:22.211Z,32.56
2019-05-11T12:30:22.202Z,31.58
2019-05-11T12:31:22.191Z,32.09
2019-05-11T12:32:48.773Z,32.70
2019-05-11T12:33:48.232Z,33.58
2019-05-11T12:34:48.288Z,33.68
2019-05-11T12:35:48.183Z,33.78
2019-05-11T12:36:48.019Z,33.68
2019-05-11T12:37:48.445Z,34.28
2019-05-11T12:38:48.826Z,33.37
2019-05-11T12:39:47.868Z,33.68
2019-05-11T12:40:47.760Z,33.77
2019-05-11T12:41:47.961Z,33.67
2019-05-11T12:42:48.925Z,32.38
2019-05-11T12:43:48.831Z,32.78
2019-05-11T12:44:48.155Z,33.67
2019-05-11T12:45:48.184Z,33.86
2019-05-11T12:46:48.812Z,32.58
2019-05-11T12:47:47.982Z,33.86
2019-05-11T12:48:48.534Z,34.66
2019-05-11T12:49:48.345Z,34.36
2019-05-11T12:50:48.428Z,34.55
2019-05-11T12:51:48.790Z,34.75
2019-05-11T12:52:47.711Z,34.55
2019-05-11T12:53:47.633Z,34.75
2019-05-11T12:54:47.874Z,34.55
2019-05-11T12:55:48.407Z,34.74
2019-05-11T12:56:48.899Z,34.14
2019-05-11T12:57:47.775Z,34.14